Time;durP1;ratioP1;P1;durP2;ratioP2;P2;SDS_P1;SDS_P2;PMS_P1;PMS_P2;Temp;Humidity;BMP_temperature;BMP_pressure;BME280_temperature;BME280_humidity;BME280_pressure;Samples;Min_cycle;Max_cycle;Signal;HPM_P1;HPM_P2
2022/10/18 00:02:19;;;;;;;3.40;0.52;;;23.40;67.60;;;;;;5049931;28;20044;-52
2022/10/18 00:04:46;;;;;;;2.08;0.30;;;23.40;67.60;;;;;;5049751;28;20091;-51
2022/10/18 00:07:13;;;;;;;0.32;0.25;;;23.50;67.70;;;;;;5048665;28;20036;-54
2022/10/18 00:09:42;;;;;;;0.40;0.35;;;23.40;67.60;;;;;;5049705;28;20044;-56
2022/10/18 00:12:09;;;;;;;1.27;0.40;;;23.40;67.60;;;;;;5049591;28;20039;-54
2022/10/18 00:14:36;;;;;;;0.63;0.38;;;23.50;67.60;;;;;;5049770;28;20448;-54
2022/10/18 00:17:03;;;;;;;0.68;0.28;;;23.40;67.50;;;;;;5049735;28;20041;-53
2022/10/18 00:19:30;;;;;;;1.83;0.30;;;23.50;67.60;;;;;;5049609;28;20583;-54
2022/10/18 00:21:57;;;;;;;1.75;0.40;;;23.40;67.50;;;;;;5048965;28;20044;-51
2022/10/18 00:24:24;;;;;;;1.20;0.40;;;23.40;67.50;;;;;;5049607;28;20048;-55
2022/10/18 00:26:52;;;;;;;0.95;0.40;;;23.40;67.50;;;;;;5049606;28;20045;-53
2022/10/18 00:29:19;;;;;;;0.75;0.20;;;23.40;67.40;;;;;;5041652;28;20079;-51
2022/10/18 00:31:46;;;;;;;0.20;0.15;;;23.40;67.40;;;;;;5049673;28;20045;-51
2022/10/18 00:34:15;;;;;;;0.75;0.20;;;23.40;67.40;;;;;;5049044;28;20041;-54
2022/10/18 00:36:43;;;;;;;0.85;0.15;;;23.40;67.30;;;;;;5048624;28;20044;-53
2022/10/18 00:39:16;;;;;;;2.38;0.28;;;23.40;67.30;;;;;;5049386;28;20125;-51
2022/10/18 00:41:43;;;;;;;2.17;0.10;;;23.50;67.40;;;;;;5049271;28;20037;-51
2022/10/18 00:44:43;;;;;;;0.20;0.15;;;23.40;67.40;;;;;;5048753;28;20037;-51
2022/10/18 00:47:15;;;;;;;0.50;0.20;;;23.50;67.40;;;;;;5048631;28;20053;-53
2022/10/18 00:49:45;;;;;;;1.83;0.10;;;23.40;67.50;;;;;;5048754;28;20131;-53
2022/10/18 00:52:16;;;;;;;1.95;0.30;;;23.40;67.50;;;;;;5048866;28;20181;-50
2022/10/18 00:54:45;;;;;;;0.52;0.30;;;23.40;67.50;;;;;;5048759;28;20055;-54
2022/10/18 00:57:13;;;;;;;0.30;0.10;;;23.40;67.50;;;;;;5048844;28;20724;-51
2022/10/18 00:59:41;;;;;;;1.17;0.20;;;23.40;67.50;;;;;;5049169;28;20565;-54
2022/10/18 01:02:08;;;;;;;0.30;0.20;;;23.40;67.50;;;;;;5048975;28;20041;-54
2022/10/18 01:04:37;;;;;;;1.75;0.20;;;23.40;67.50;;;;;;5048530;28;20127;-54
2022/10/18 01:07:16;;;;;;;0.47;0.47;;;23.40;67.50;;;;;;5048462;28;20048;-52
2022/10/18 01:09:48;;;;;;;0.57;0.30;;;23.40;67.50;;;;;;5049413;28;20092;-53
2022/10/18 01:12:24;;;;;;;1.45;1.02;;;23.40;67.50;;;;;;5048670;28;20561;-49
2022/10/18 01:14:53;;;;;;;;;;;23.40;67.50;;;;;;5048937;28;20041;-51
2022/10/18 01:17:27;;;;;;;1.20;0.20;;;23.40;67.40;;;;;;5048374;28;20304;-54
2022/10/18 01:20:31;;;;;;;1.00;0.10;;;23.40;67.70;;;;;;5041674;28;20036;-56
2022/10/18 01:23:05;;;;;;;0.30;0.30;;;23.40;68.10;;;;;;5047222;28;20344;-53
2022/10/18 01:25:40;;;;;;;0.30;0.25;;;23.30;67.70;;;;;;5048610;28;20068;-54
2022/10/18 01:28:19;;;;;;;3.37;0.20;;;23.40;67.70;;;;;;5048667;28;20045;-55
2022/10/18 01:30:52;;;;;;;2.25;0.50;;;23.40;67.60;;;;;;5048680;28;20052;-55
2022/10/18 01:33:26;;;;;;;1.65;0.75;;;23.40;67.60;;;;;;5048169;28;20047;-55
2022/10/18 01:35:59;;;;;;;1.25;0.35;;;23.40;67.60;;;;;;5048090;28;20041;-55
2022/10/18 01:38:29;;;;;;;2.63;1.27;;;23.40;67.60;;;;;;5048261;28;20094;-55
2022/10/18 01:40:57;;;;;;;0.95;0.30;;;23.40;67.50;;;;;;5048098;28;20123;-55
2022/10/18 01:43:27;;;;;;;4.20;0.40;;;23.40;67.50;;;;;;5044574;28;20049;-54
2022/10/18 01:45:57;;;;;;;1.02;0.20;;;23.40;67.50;;;;;;5047794;28;20029;-55
2022/10/18 01:48:24;;;;;;;0.85;0.50;;;23.40;67.50;;;;;;5047768;28;20044;-52
2022/10/18 01:50:52;;;;;;;0.38;0.20;;;23.40;67.40;;;;;;5048308;28;20045;-52
2022/10/18 01:53:25;;;;;;;0.73;0.20;;;23.40;67.40;;;;;;5047860;28;20060;-53
2022/10/18 01:56:11;;;;;;;0.50;0.30;;;23.40;67.40;;;;;;5047834;28;20051;-53
2022/10/18 01:58:48;;;;;;;1.60;0.20;;;23.40;67.30;;;;;;5045755;28;20053;-51
2022/10/18 02:01:23;;;;;;;1.88;0.20;;;23.40;67.30;;;;;;5046597;28;20037;-54
2022/10/18 02:03:56;;;;;;;1.10;0.57;;;23.40;67.40;;;;;;5047731;28;20602;-54
2022/10/18 02:06:28;;;;;;;3.20;0.45;;;23.40;67.40;;;;;;5047942;28;20502;-52
2022/10/18 02:09:00;;;;;;;3.60;0.30;;;23.40;67.40;;;;;;5047815;28;20120;-53
2022/10/18 02:11:31;;;;;;;2.60;0.52;;;23.40;67.50;;;;;;5047722;28;20044;-52
2022/10/18 02:14:03;;;;;;;3.05;0.40;;;23.40;67.40;;;;;;5047770;28;20041;-53
2022/10/18 02:16:37;;;;;;;0.68;0.40;;;23.40;67.40;;;;;;5047259;28;20091;-53
2022/10/18 02:19:10;;;;;;;2.13;0.32;;;23.40;67.40;;;;;;5046527;28;20509;-52
2022/10/18 02:21:40;;;;;;;2.78;0.20;;;23.40;67.40;;;;;;5047390;28;20152;-55
2022/10/18 02:24:09;;;;;;;0.88;0.88;;;23.40;67.40;;;;;;5047627;28;20127;-53
2022/10/18 02:26:36;;;;;;;0.40;0.20;;;23.40;67.40;;;;;;5047743;28;20033;-51
2022/10/18 02:29:04;;;;;;;2.38;0.30;;;23.40;67.40;;;;;;5047986;28;20129;-53
2022/10/18 02:31:39;;;;;;;0.43;0.43;;;23.40;67.30;;;;;;5047236;28;20052;-55
2022/10/18 02:34:13;;;;;;;0.40;0.20;;;23.40;67.30;;;;;;5047479;28;20041;-53
2022/10/18 02:36:45;;;;;;;0.93;0.93;;;23.40;67.30;;;;;;5047698;28;20037;-54
2022/10/18 02:39:14;;;;;;;0.68;0.60;;;23.40;67.30;;;;;;5047707;28;20124;-52
2022/10/18 02:41:42;;;;;;;4.82;0.40;;;23.40;67.30;;;;;;5047670;28;20041;-54
2022/10/18 02:44:09;;;;;;;2.50;0.63;;;23.40;67.30;;;;;;5047532;28;20083;-51
2022/10/18 02:46:39;;;;;;;0.85;0.30;;;23.30;67.30;;;;;;5046705;28;20037;-52
2022/10/18 02:49:06;;;;;;;1.67;0.43;;;23.40;67.30;;;;;;5047559;28;20048;-53
2022/10/18 02:51:34;;;;;;;2.83;0.35;;;23.40;67.30;;;;;;5047304;28;20056;-54
2022/10/18 02:54:01;;;;;;;1.30;0.30;;;23.30;67.30;;;;;;5047539;28;20055;-54
2022/10/18 02:56:28;;;;;;;0.57;0.20;;;23.30;67.20;;;;;;5047195;28;20063;-51
2022/10/18 02:58:55;;;;;;;0.20;0.20;;;23.40;67.30;;;;;;5047796;28;20073;-53
2022/10/18 03:01:22;;;;;;;1.13;0.40;;;23.30;67.80;;;;;;5047389;28;20045;-53
2022/10/18 03:03:51;;;;;;;1.50;0.45;;;23.30;67.20;;;;;;5047600;28;20041;-51
2022/10/18 03:06:18;;;;;;;0.70;0.70;;;23.40;67.30;;;;;;5047434;28;20044;-51
2022/10/18 03:08:45;;;;;;;1.10;1.05;;;23.30;67.20;;;;;;5048162;28;20513;-50
2022/10/18 03:11:13;;;;;;;0.68;0.20;;;23.30;67.20;;;;;;5050948;28;20315;-52
2022/10/18 03:13:40;;;;;;;1.92;0.70;;;23.30;67.20;;;;;;5051403;28;20044;-52
2022/10/18 03:16:07;;;;;;;1.38;0.52;;;23.30;67.20;;;;;;5050459;28;20041;-51
2022/10/18 03:18:34;;;;;;;0.38;0.38;;;23.30;67.20;;;;;;5050920;28;20112;-51
2022/10/18 03:21:05;;;;;;;2.95;0.63;;;23.30;67.20;;;;;;5050939;28;20037;-51
2022/10/18 03:23:32;;;;;;;0.93;0.30;;;23.30;67.10;;;;;;5050876;28;20069;-52
2022/10/18 03:25:59;;;;;;;1.88;0.65;;;23.30;67.20;;;;;;5050109;28;20037;-54
2022/10/18 03:28:26;;;;;;;1.30;0.47;;;23.30;67.20;;;;;;5050830;28;20044;-53
2022/10/18 03:30:53;;;;;;;0.20;0.20;;;23.30;67.20;;;;;;5050689;28;20501;-52
2022/10/18 03:33:20;;;;;;;0.70;0.35;;;23.30;67.20;;;;;;5050818;28;20045;-50
2022/10/18 03:35:47;;;;;;;2.35;0.82;;;23.30;67.20;;;;;;5050452;28;20045;-52
2022/10/18 03:38:16;;;;;;;2.60;0.93;;;23.30;67.20;;;;;;5050450;28;20041;-55
2022/10/18 03:40:43;;;;;;;1.85;0.50;;;23.30;67.20;;;;;;5050293;28;20052;-53
2022/10/18 03:43:10;;;;;;;1.05;0.77;;;23.30;67.20;;;;;;5050434;28;20059;-52
2022/10/18 03:45:37;;;;;;;1.23;0.47;;;23.30;67.20;;;;;;5050563;28;20052;-54
2022/10/18 03:48:04;;;;;;;2.05;0.40;;;23.30;67.20;;;;;;5050285;28;20041;-54
2022/10/18 03:50:31;;;;;;;0.70;0.63;;;23.30;67.20;;;;;;5048914;28;20044;-53
2022/10/18 03:52:58;;;;;;;2.75;0.38;;;23.30;67.20;;;;;;5048486;28;20103;-53
2022/10/18 03:55:27;;;;;;;2.40;0.50;;;23.30;67.20;;;;;;5046921;28;20044;-52
2022/10/18 03:57:54;;;;;;;0.47;0.47;;;23.30;67.30;;;;;;5049634;28;20470;-55
2022/10/18 04:00:21;;;;;;;0.45;0.20;;;23.30;67.20;;;;;;5050019;28;20569;-54
2022/10/18 04:02:48;;;;;;;0.57;0.47;;;23.30;67.20;;;;;;5050071;28;20413;-54
2022/10/18 04:05:15;;;;;;;1.15;0.40;;;23.30;67.10;;;;;;5050163;28;20549;-52
2022/10/18 04:07:42;;;;;;;0.40;0.20;;;23.30;67.20;;;;;;5050178;28;20125;-52
2022/10/18 04:10:10;;;;;;;0.75;0.45;;;23.30;67.20;;;;;;5049142;28;20037;-55
2022/10/18 04:12:38;;;;;;;1.55;0.40;;;23.30;67.70;;;;;;5049576;28;20049;-51
2022/10/18 04:15:06;;;;;;;2.08;0.93;;;23.30;67.10;;;;;;5049907;28;20126;-56
2022/10/18 04:17:33;;;;;;;0.98;0.52;;;23.30;67.20;;;;;;5049943;28;20045;-54
2022/10/18 04:20:00;;;;;;;1.25;1.00;;;23.30;67.20;;;;;;5049786;28;20171;-57
2022/10/18 04:22:27;;;;;;;2.85;1.65;;;23.30;67.20;;;;;;5049962;28;20567;-55
2022/10/18 04:24:55;;;;;;;0.45;0.30;;;23.20;67.10;;;;;;5049613;28;20044;-53
2022/10/18 04:27:23;;;;;;;1.27;0.95;;;23.30;67.20;;;;;;5049352;28;20052;-55
2022/10/18 04:29:51;;;;;;;2.25;0.80;;;23.30;67.20;;;;;;5048926;28;20060;-55
2022/10/18 04:32:18;;;;;;;1.35;1.25;;;23.30;67.20;;;;;;5046573;28;20544;-53
2022/10/18 04:34:45;;;;;;;1.23;0.93;;;23.30;67.20;;;;;;5047910;28;20071;-54
2022/10/18 04:37:12;;;;;;;1.30;0.93;;;23.20;67.10;;;;;;5048725;28;20037;-55
2022/10/18 04:39:39;;;;;;;1.45;1.42;;;23.30;67.20;;;;;;5047371;28;20041;-53
2022/10/18 04:42:06;;;;;;;1.42;0.70;;;23.30;67.20;;;;;;5044425;28;20043;-54
2022/10/18 04:44:33;;;;;;;1.58;1.48;;;23.20;67.20;;;;;;5048304;28;20041;-54
2022/10/18 04:47:01;;;;;;;3.88;1.27;;;23.30;67.10;;;;;;5046629;28;20116;-51
2022/10/18 04:49:28;;;;;;;3.05;1.38;;;23.30;67.20;;;;;;5048173;28;20037;-54
2022/10/18 04:51:55;;;;;;;4.72;2.00;;;23.30;67.20;;;;;;5048102;28;20409;-52
2022/10/18 04:54:22;;;;;;;2.10;1.67;;;23.30;67.10;;;;;;5047078;28;20811;-55
2022/10/18 04:56:49;;;;;;;3.22;2.05;;;23.30;67.10;;;;;;5048233;28;20072;-55
2022/10/18 04:59:16;;;;;;;3.60;1.60;;;23.30;67.10;;;;;;5048356;28;20789;-55
2022/10/18 05:01:43;;;;;;;5.70;3.42;;;23.30;67.10;;;;;;5044044;28;20051;-55
2022/10/18 05:04:12;;;;;;;2.60;2.00;;;23.20;67.10;;;;;;5048067;28;20116;-56
2022/10/18 05:06:39;;;;;;;5.90;3.25;;;23.20;67.30;;;;;;5048013;28;20128;-58
2022/10/18 05:09:06;;;;;;;3.67;2.25;;;23.10;67.50;;;;;;5046933;28;20421;-50
2022/10/18 05:11:33;;;;;;;2.33;1.83;;;23.10;67.90;;;;;;5047800;28;20051;-57
2022/10/18 05:14:00;;;;;;;5.47;2.33;;;23.10;68.30;;;;;;5048322;28;20036;-54
2022/10/18 05:16:27;;;;;;;4.45;2.15;;;23.00;68.50;;;;;;5048288;28;20039;-58
2022/10/18 05:18:54;;;;;;;3.05;2.13;;;23.10;68.80;;;;;;5048403;28;20049;-55
2022/10/18 05:21:22;;;;;;;3.40;1.60;;;23.10;69.00;;;;;;5044844;28;20048;-60
2022/10/18 05:23:49;;;;;;;3.42;3.13;;;23.10;69.10;;;;;;5048550;28;20120;-49
2022/10/18 05:26:16;;;;;;;3.25;2.70;;;23.10;69.10;;;;;;5027327;28;20091;-53
2022/10/18 05:28:43;;;;;;;6.40;2.88;;;23.20;69.00;;;;;;5041448;28;20055;-57
2022/10/18 05:31:11;;;;;;;3.33;2.25;;;23.20;69.00;;;;;;5047443;28;20106;-57
2022/10/18 05:33:38;;;;;;;5.32;3.53;;;23.30;69.00;;;;;;5047974;28;20504;-52
2022/10/18 05:36:06;;;;;;;5.45;3.63;;;23.30;68.90;;;;;;5047503;28;20064;-58
2022/10/18 05:38:34;;;;;;;7.65;3.78;;;23.30;68.90;;;;;;5047865;28;20041;-55
2022/10/18 05:41:05;;;;;;;7.00;3.22;;;23.40;69.40;;;;;;5047265;28;20076;-55
2022/10/18 05:43:32;;;;;;;7.60;3.03;;;23.40;68.80;;;;;;5046214;28;20466;-56
2022/10/18 05:45:59;;;;;;;5.60;2.95;;;23.40;68.80;;;;;;5041205;28;20040;-51
2022/10/18 05:48:26;;;;;;;4.90;3.20;;;23.50;68.90;;;;;;5038504;28;20116;-59
2022/10/18 05:50:54;;;;;;;6.38;3.50;;;23.50;68.90;;;;;;5041260;28;20494;-55
2022/10/18 05:53:20;;;;;;;4.15;2.90;;;23.50;68.80;;;;;;5076210;28;20102;-55
2022/10/18 05:55:49;;;;;;;9.27;3.45;;;23.60;68.80;;;;;;5047243;28;20047;-55
2022/10/18 05:58:16;;;;;;;7.15;4.78;;;23.60;68.80;;;;;;5047603;28;20045;-53
2022/10/18 06:00:43;;;;;;;6.95;4.25;;;23.70;68.80;;;;;;5047429;28;20078;-61
2022/10/18 06:03:10;;;;;;;6.45;3.95;;;23.70;68.60;;;;;;5046714;28;20083;-55
2022/10/18 06:05:37;;;;;;;6.07;4.30;;;23.80;68.40;;;;;;5046173;28;20052;-56
2022/10/18 06:08:04;;;;;;;6.95;5.38;;;23.80;68.10;;;;;;5046985;28;20480;-48
2022/10/18 06:10:31;;;;;;;7.13;4.10;;;23.80;67.80;;;;;;5043428;28;20041;-55
2022/10/18 06:13:00;;;;;;;7.88;4.93;;;23.80;67.50;;;;;;5045460;28;20462;-56
2022/10/18 06:15:27;;;;;;;7.75;3.78;;;23.80;67.50;;;;;;5047534;28;20033;-60
2022/10/18 06:17:54;;;;;;;6.63;4.03;;;23.90;67.50;;;;;;5047547;28;20037;-57
2022/10/18 06:20:21;;;;;;;4.35;3.95;;;24.00;67.30;;;;;;5047640;28;20025;-53
2022/10/18 06:22:48;;;;;;;5.18;4.55;;;24.10;67.10;;;;;;5046976;28;20139;-54
2022/10/18 06:25:15;;;;;;;4.35;3.85;;;24.10;66.80;;;;;;5047140;28;20041;-55
2022/10/18 06:27:42;;;;;;;7.00;4.40;;;24.20;66.80;;;;;;5047311;28;20052;-53
2022/10/18 06:30:11;;;;;;;5.00;3.80;;;24.20;66.70;;;;;;5047143;28;20033;-56
2022/10/18 06:32:38;;;;;;;7.18;4.97;;;24.30;67.20;;;;;;5047298;28;20551;-56
2022/10/18 06:35:06;;;;;;;5.05;4.18;;;24.30;66.50;;;;;;5041942;28;20416;-55
2022/10/18 06:37:34;;;;;;;5.18;3.83;;;24.30;66.50;;;;;;5046157;28;20055;-54
2022/10/18 06:40:01;;;;;;;6.03;4.65;;;24.30;66.50;;;;;;5046702;28;20036;-51
2022/10/18 06:42:28;;;;;;;7.05;4.50;;;24.40;66.40;;;;;;5046538;28;20132;-52
2022/10/18 06:44:55;;;;;;;11.68;4.90;;;24.40;66.30;;;;;;5049678;28;20055;-58
2022/10/18 06:47:24;;;;;;;4.55;3.90;;;24.40;66.40;;;;;;5050982;28;20148;-59
2022/10/18 06:49:51;;;;;;;6.53;4.03;;;24.50;67.00;;;;;;5051218;28;20048;-53
2022/10/18 06:52:19;;;;;;;7.88;5.05;;;24.50;66.50;;;;;;5050660;28;20532;-54
2022/10/18 06:54:46;;;;;;;8.48;3.53;;;24.50;66.50;;;;;;5049506;28;20060;-53
2022/10/18 06:57:13;;;;;;;11.95;4.28;;;24.50;66.60;;;;;;5050834;28;20133;-58
2022/10/18 06:59:40;;;;;;;11.13;3.85;;;24.50;66.70;;;;;;5050939;28;20045;-58
2022/10/18 07:02:07;;;;;;;6.82;3.80;;;24.60;66.80;;;;;;5049636;28;20049;-58
2022/10/18 07:04:36;;;;;;;7.45;3.38;;;24.70;66.70;;;;;;5050989;28;20587;-58
2022/10/18 07:07:03;;;;;;;6.18;5.00;;;24.70;66.60;;;;;;5049003;28;20059;-58
2022/10/18 07:09:30;;;;;;;3.92;2.95;;;24.80;66.40;;;;;;5050825;28;20571;-56
2022/10/18 07:11:57;;;;;;;6.32;3.80;;;24.90;66.20;;;;;;5050365;28;20064;-57
2022/10/18 07:14:24;;;;;;;3.53;3.00;;;24.90;66.10;;;;;;5048967;28;20041;-56
2022/10/18 07:16:51;;;;;;;10.05;7.43;;;24.90;65.90;;;;;;5052377;28;20112;-60
2022/10/18 07:19:18;;;;;;;10.18;6.80;;;25.00;64.20;;;;;;5052697;28;20041;-57
2022/10/18 07:21:47;;;;;;;14.30;7.07;;;25.00;63.00;;;;;;5051422;28;20047;-59
2022/10/18 07:24:15;;;;;;;8.05;5.90;;;24.90;62.10;;;;;;5051603;28;20037;-60
2022/10/18 07:26:42;;;;;;;10.38;6.18;;;24.90;61.70;;;;;;5044839;28;20063;-61
2022/10/18 07:29:12;;;;;;;16.25;7.05;;;24.90;61.40;;;;;;5051697;28;20048;-61
2022/10/18 07:31:39;;;;;;;10.50;6.57;;;24.80;61.30;;;;;;5050418;28;20056;-60
2022/10/18 07:34:07;;;;;;;7.90;5.20;;;24.70;61.30;;;;;;5060265;28;20039;-59
2022/10/18 07:36:35;;;;;;;10.45;5.40;;;24.60;61.10;;;;;;5049559;28;20044;-59
2022/10/18 07:39:04;;;;;;;4.75;4.28;;;24.50;61.20;;;;;;5047623;28;20044;-54
2022/10/18 07:41:32;;;;;;;3.40;3.10;;;24.50;61.30;;;;;;5048349;28;20073;-59
2022/10/18 07:43:59;;;;;;;5.75;3.67;;;24.50;61.30;;;;;;5050250;28;20409;-56
2022/10/18 07:46:27;;;;;;;2.85;2.28;;;24.40;61.30;;;;;;5049707;28;20136;-58
2022/10/18 07:48:55;;;;;;;3.10;2.67;;;24.30;61.10;;;;;;5050256;28;20789;-57
2022/10/18 07:51:22;;;;;;;4.00;2.50;;;24.30;61.20;;;;;;5051231;28;20071;-58
2022/10/18 07:53:49;;;;;;;4.82;2.88;;;24.30;61.20;;;;;;5050219;28;20045;-56
2022/10/18 07:56:19;;;;;;;3.75;2.03;;;24.20;61.90;;;;;;5050185;28;20145;-53
2022/10/18 07:58:50;;;;;;;8.40;1.77;;;24.20;61.30;;;;;;5050426;28;20049;-55
2022/10/18 08:01:17;;;;;;;1.80;1.67;;;24.10;61.40;;;;;;5049697;28;20036;-58
2022/10/18 08:03:44;;;;;;;3.60;1.23;;;24.10;61.30;;;;;;5050248;28;20178;-61
2022/10/18 08:06:15;;;;;;;5.18;1.30;;;24.10;61.40;;;;;;5050663;28;20049;-55
2022/10/18 08:08:42;;;;;;;5.70;1.42;;;24.00;61.30;;;;;;5049071;28;20037;-61
2022/10/18 08:11:11;;;;;;;31.67;4.57;;;24.00;61.30;;;;;;5049429;28;20703;-51
2022/10/18 08:13:40;;;;;;;8.25;1.73;;;24.00;61.80;;;;;;5049416;28;20110;-54
2022/10/18 08:16:08;;;;;;;2.92;0.82;;;24.00;61.80;;;;;;5048840;28;20713;-53
2022/10/18 08:18:36;;;;;;;11.18;3.88;;;23.90;61.50;;;;;;5048249;28;20053;-49
2022/10/18 08:21:05;;;;;;;5.57;1.05;;;23.80;62.20;;;;;;5047657;28;20040;-53
2022/10/18 08:23:33;;;;;;;2.83;0.73;;;23.80;63.10;;;;;;5049031;28;20049;-61
2022/10/18 08:26:02;;;;;;;3.88;0.50;;;23.80;63.00;;;;;;5042571;28;20045;-57
2022/10/18 08:28:30;;;;;;;1.85;0.63;;;23.70;62.90;;;;;;5053329;28;20545;-60
2022/10/18 08:31:02;;;;;;;2.30;1.05;;;23.60;62.70;;;;;;5050138;28;20037;-66
2022/10/18 08:33:34;;;;;;;2.63;1.00;;;23.50;62.80;;;;;;5042387;28;20049;-69
2022/10/18 08:36:04;;;;;;;3.60;0.88;;;23.50;62.80;;;;;;5025681;28;20069;-62
2022/10/18 08:38:32;;;;;;;2.80;0.60;;;23.40;63.00;;;;;;5051374;28;20517;-61
2022/10/18 08:41:00;;;;;;;1.35;0.80;;;23.30;63.20;;;;;;5050505;28;20068;-64
2022/10/18 08:43:36;;;;;;;4.93;1.45;;;23.30;63.30;;;;;;5048992;28;20498;-56
2022/10/18 08:46:05;;;;;;;4.30;1.20;;;23.30;63.40;;;;;;5048726;28;20055;-59
2022/10/18 08:48:36;;;;;;;3.10;0.70;;;23.30;64.20;;;;;;5047138;28;20048;-57
2022/10/18 08:51:09;;;;;;;7.03;1.02;;;23.30;64.70;;;;;;5048700;28;20044;-57
2022/10/18 08:53:44;;;;;;;4.88;0.95;;;23.40;65.00;;;;;;5047000;28;20041;-57
2022/10/18 08:56:14;;;;;;;6.97;1.52;;;23.50;65.10;;;;;;5049069;28;20280;-59
2022/10/18 08:58:43;;;;;;;4.25;0.52;;;23.60;65.20;;;;;;5049230;28;20072;-56
2022/10/18 09:01:22;;;;;;;3.30;0.30;;;23.60;65.10;;;;;;5048946;28;20044;-56
2022/10/18 09:04:06;;;;;;;3.40;0.68;;;23.80;65.20;;;;;;5045043;28;20052;-59
2022/10/18 09:06:42;;;;;;;3.00;0.20;;;23.80;65.10;;;;;;5043115;28;20136;-59
2022/10/18 09:09:23;;;;;;;5.88;1.38;;;23.90;65.10;;;;;;5048879;28;20529;-57
2022/10/18 09:12:02;;;;;;;2.47;0.82;;;24.00;65.00;;;;;;5049175;28;20062;-58
2022/10/18 09:14:50;;;;;;;6.95;0.38;;;24.10;65.00;;;;;;5049112;28;20102;-58
2022/10/18 09:17:29;;;;;;;4.63;0.20;;;24.10;64.90;;;;;;5044524;28;20048;-58
2022/10/18 09:20:11;;;;;;;2.85;1.10;;;24.20;65.00;;;;;;5048628;28;20513;-59
2022/10/18 09:22:52;;;;;;;2.25;0.35;;;24.20;65.20;;;;;;5048652;28;20420;-59
2022/10/18 09:25:22;;;;;;;1.88;0.20;;;24.30;64.70;;;;;;5042296;28;20072;-59
2022/10/18 09:27:53;;;;;;;0.77;0.10;;;24.30;64.70;;;;;;5048618;28;20487;-59
2022/10/18 09:30:39;;;;;;;0.50;0.20;;;24.40;64.60;;;;;;5048829;28;20055;-59
2022/10/18 09:33:27;;;;;;;2.70;0.20;;;24.50;64.50;;;;;;5048261;28;20409;-58
2022/10/18 09:35:57;;;;;;;2.40;0.22;;;24.50;64.30;;;;;;5042260;28;20037;-59
2022/10/18 09:38:29;;;;;;;2.30;0.40;;;24.50;64.30;;;;;;5048531;28;20048;-56
2022/10/18 09:41:02;;;;;;;3.90;1.00;;;24.60;64.30;;;;;;5048556;28;20049;-57
2022/10/18 09:43:40;;;;;;;0.82;0.30;;;24.60;64.20;;;;;;5045104;28;20042;-58
2022/10/18 09:46:09;;;;;;;4.70;0.17;;;24.70;64.10;;;;;;5048067;28;20044;-58
2022/10/18 09:48:45;;;;;;;0.63;0.30;;;24.70;64.10;;;;;;5048185;28;20036;-56
2022/10/18 09:51:16;;;;;;;2.05;0.13;;;24.80;64.00;;;;;;5048639;28;20123;-56
2022/10/18 09:53:52;;;;;;;0.30;0.30;;;24.80;64.00;;;;;;5048139;28;20100;-58
2022/10/18 09:56:24;;;;;;;0.57;0.13;;;24.80;64.00;;;;;;5048433;28;20133;-57
2022/10/18 09:58:51;;;;;;;1.20;0.40;;;24.90;63.90;;;;;;5048299;28;20048;-57
2022/10/18 10:01:24;;;;;;;1.33;0.10;;;24.90;63.90;;;;;;5047377;28;20048;-56
2022/10/18 10:03:53;;;;;;;0.47;0.10;;;24.90;63.80;;;;;;5048269;28;20041;-58
2022/10/18 10:06:25;;;;;;;1.00;0.40;;;24.90;63.70;;;;;;5048208;28;20045;-58
2022/10/18 10:08:59;;;;;;;0.40;0.10;;;25.00;63.80;;;;;;5046656;28;20045;-57
2022/10/18 10:11:29;;;;;;;0.82;0.32;;;25.00;63.80;;;;;;5047793;28;20068;-58
2022/10/18 10:13:58;;;;;;;1.98;0.20;;;25.00;63.70;;;;;;5047812;28;20056;-58
2022/10/18 10:16:27;;;;;;;0.60;0.10;;;25.00;63.70;;;;;;5047709;28;20799;-58
2022/10/18 10:18:56;;;;;;;3.22;0.30;;;25.10;63.70;;;;;;5051225;28;20090;-59
2022/10/18 10:21:24;;;;;;;0.30;0.20;;;25.10;63.60;;;;;;5051822;28;20145;-57
2022/10/18 10:23:54;;;;;;;0.50;0.10;;;25.10;63.60;;;;;;5051743;28;20037;-57
2022/10/18 10:26:23;;;;;;;0.30;0.10;;;25.10;63.60;;;;;;5052221;28;20644;-58
2022/10/18 10:28:51;;;;;;;1.95;0.10;;;25.20;63.70;;;;;;5052101;28;20394;-59
2022/10/18 10:31:26;;;;;;;2.03;0.57;;;25.20;63.60;;;;;;5051582;28;20037;-57
2022/10/18 10:34:02;;;;;;;0.95;0.20;;;25.20;63.60;;;;;;5052109;28;20136;-58
2022/10/18 10:36:30;;;;;;;0.30;0.30;;;25.30;63.70;;;;;;5050978;28;20041;-57
2022/10/18 10:39:06;;;;;;;0.20;0.15;;;25.30;63.70;;;;;;5051716;28;20037;-58
2022/10/18 10:41:33;;;;;;;1.38;0.10;;;25.30;63.60;;;;;;5050879;28;20049;-58
2022/10/18 10:44:04;;;;;;;0.32;0.20;;;25.30;63.60;;;;;;5051759;28;20571;-57
2022/10/18 10:46:35;;;;;;;0.30;0.10;;;25.30;63.50;;;;;;5045100;28;20044;-58
2022/10/18 10:49:05;;;;;;;1.52;0.20;;;25.40;63.60;;;;;;5051810;28;20048;-57
2022/10/18 10:51:35;;;;;;;0.50;0.10;;;25.40;63.50;;;;;;5051789;28;20041;-56
2022/10/18 10:54:04;;;;;;;0.68;0.10;;;25.40;63.50;;;;;;5051521;28;20056;-55
2022/10/18 10:56:33;;;;;;;0.63;0.10;;;25.50;63.50;;;;;;5051544;28;20037;-55
2022/10/18 10:59:09;;;;;;;1.75;0.20;;;25.50;63.50;;;;;;5051202;28;20049;-56
2022/10/18 11:01:36;;;;;;;0.20;0.10;;;25.50;63.30;;;;;;5051755;28;20048;-61
2022/10/18 11:04:24;;;;;;;1.25;0.40;;;25.50;63.10;;;;;;5051066;28;20143;-54
2022/10/18 11:07:03;;;;;;;1.70;0.20;;;25.60;63.20;;;;;;5051178;28;20043;-56
2022/10/18 11:09:51;;;;;;;3.22;0.22;;;25.60;63.30;;;;;;5051308;28;20041;-56
2022/10/18 11:12:25;;;;;;;2.35;0.10;;;25.60;63.20;;;;;;5051300;28;20448;-60
2022/10/18 11:15:02;;;;;;;1.25;0.10;;;25.60;63.30;;;;;;5035807;28;20056;-60
2022/10/18 11:17:35;;;;;;;0.20;0.10;;;25.60;63.10;;;;;;5047519;28;20049;-60
2022/10/18 11:20:17;;;;;;;1.25;0.10;;;25.60;63.20;;;;;;5050644;28;20508;-53
2022/10/18 11:22:59;;;;;;;2.05;0.10;;;25.60;63.20;;;;;;5044744;28;20051;-52
2022/10/18 11:25:39;;;;;;;1.65;0.10;;;25.60;63.20;;;;;;5050813;28;20103;-56
2022/10/18 11:28:12;;;;;;;0.20;0.10;;;25.70;63.40;;;;;;5047842;28;20136;-58
2022/10/18 11:30:52;;;;;;;1.30;0.10;;;25.70;63.30;;;;;;5046372;28;20041;-55
2022/10/18 11:33:27;;;;;;;1.40;0.30;;;25.70;63.20;;;;;;5062723;28;20052;-54
2022/10/18 11:36:06;;;;;;;2.30;0.10;;;25.70;63.10;;;;;;5049761;28;20043;-52
2022/10/18 11:38:42;;;;;;;0.63;0.30;;;25.80;63.10;;;;;;5050463;28;20044;-55
2022/10/18 11:41:30;;;;;;;0.70;0.15;;;25.70;63.00;;;;;;5048709;28;20520;-55
2022/10/18 11:43:59;;;;;;;1.40;0.20;;;25.80;62.80;;;;;;5045281;28;20045;-53
2022/10/18 11:46:41;;;;;;;0.10;0.10;;;25.80;62.90;;;;;;5049799;28;20043;-55
2022/10/18 11:49:27;;;;;;;1.33;0.10;;;25.90;62.70;;;;;;5049543;28;20049;-56
2022/10/18 11:52:07;;;;;;;0.30;0.10;;;25.90;62.50;;;;;;5049287;28;20517;-57
2022/10/18 11:55:08;;;;;;;0.13;0.10;;;26.00;62.50;;;;;;5049097;28;20077;-56
2022/10/18 11:57:46;;;;;;;2.28;0.10;;;26.00;62.30;;;;;;5041833;28;20047;-56
2022/10/18 12:00:28;;;;;;;1.75;0.20;;;25.90;62.20;;;;;;5049608;28;20533;-57
2022/10/18 12:03:14;;;;;;;2.25;0.30;;;26.00;62.10;;;;;;5043662;28;20065;-59
2022/10/18 12:05:45;;;;;;;0.70;0.20;;;26.00;62.10;;;;;;5047701;28;20140;-58
2022/10/18 12:08:17;;;;;;;5.68;0.10;;;26.00;62.40;;;;;;5049321;28;20045;-59
2022/10/18 12:10:49;;;;;;;0.20;0.10;;;26.10;62.50;;;;;;5049242;28;20099;-60
2022/10/18 12:13:21;;;;;;;1.10;0.10;;;26.10;63.00;;;;;;5049739;28;20045;-59
2022/10/18 12:15:50;;;;;;;0.80;0.10;;;26.10;62.40;;;;;;5049736;28;20041;-59
2022/10/18 12:18:21;;;;;;;0.82;0.20;;;26.20;62.50;;;;;;5050008;28;20532;-61
2022/10/18 12:20:51;;;;;;;0.10;0.10;;;26.30;62.50;;;;;;5049623;28;20061;-61
2022/10/18 12:23:30;;;;;;;1.55;0.20;;;26.30;62.40;;;;;;5048611;28;20048;-57
2022/10/18 12:26:02;;;;;;;3.70;0.10;;;26.40;62.20;;;;;;5048974;28;20080;-58
2022/10/18 12:28:42;;;;;;;0.20;0.10;;;26.40;62.00;;;;;;5049683;28;20060;-58
2022/10/18 12:31:20;;;;;;;0.22;0.10;;;26.50;61.80;;;;;;5049640;28;20072;-59
2022/10/18 12:33:51;;;;;;;1.65;0.10;;;26.60;61.70;;;;;;5049611;28;20120;-59
2022/10/18 12:36:49;;;;;;;0.00;0.00;;;26.60;61.50;;;;;;5049512;28;20043;-56
2022/10/18 12:39:24;;;;;;;1.20;0.10;;;26.70;61.40;;;;;;5049526;28;20048;-52
2022/10/18 12:41:55;;;;;;;1.60;0.10;;;26.80;61.40;;;;;;5048627;28;20048;-56
2022/10/18 12:44:28;;;;;;;1.75;0.28;;;26.80;61.20;;;;;;5049130;28;20132;-55
2022/10/18 12:46:58;;;;;;;0.30;0.10;;;26.90;61.00;;;;;;5049128;28;20095;-51
2022/10/18 12:49:29;;;;;;;0.20;0.20;;;26.90;60.60;;;;;;5048985;28;20048;-50
2022/10/18 12:51:58;;;;;;;1.27;0.10;;;27.00;60.40;;;;;;5045873;28;20257;-60
2022/10/18 12:54:29;;;;;;;0.20;0.10;;;27.00;60.20;;;;;;5046803;28;20053;-50
2022/10/18 12:56:58;;;;;;;1.67;0.10;;;27.10;60.00;;;;;;5047890;28;20521;-58
2022/10/18 12:59:40;;;;;;;0.93;0.00;;;27.10;59.90;;;;;;5064284;28;20130;-63
2022/10/18 13:02:31;;;;;;;0.52;0.10;;;27.10;59.60;;;;;;5048398;28;20041;-49
2022/10/18 13:05:00;;;;;;;0.10;0.10;;;27.20;59.50;;;;;;5031452;28;20140;-50